Terminal Aerodrome Forecast
Issued by NWS Springfield, MO

Home | Current Version | Previous Version | Text Only | Print | Product List | Glossary On
Versions: 1 2 3 4 5 6 7 8 9 10 11 12 13 14 15 16
000
FTUS43 KSGF 032320
TAFSGF
TAF
KSGF 032320Z 0400/0424 14008KT P6SM -RA OVC040
     FM040400 13009KT 5SM -RA BR OVC025
     FM041100 13006KT 4SM -RA OVC008
     FM041600 19005KT P6SM OVC008
     FM042000 29006KT P6SM BKN020
     FM042200 31006KT P6SM BKN040=

USA.gov is the U.S. government's official web portal to all federal, state and local government web resources and services.